Time;durP1;ratioP1;P1;durP2;ratioP2;P2;SDS_P1;SDS_P2;PMS_P1;PMS_P2;Temp;Humidity;BMP_temperature;BMP_pressure;BME280_temperature;BME280_humidity;BME280_pressure;Samples;Min_cycle;Max_cycle;Signal;HPM_P1;HPM_P2
2023/08/31 00:02:13;;;;;;;0.47;0.20;;;12.90;99.90;;;;;;5138470;27;20047;-41
2023/08/31 00:04:38;;;;;;;0.95;0.22;;;12.90;99.90;;;;;;5138278;27;20102;-41
2023/08/31 00:07:05;;;;;;;0.53;0.20;;;12.80;99.90;;;;;;5138328;27;20507;-41
2023/08/31 00:09:31;;;;;;;0.77;0.20;;;12.80;99.90;;;;;;5138230;27;20415;-41
2023/08/31 00:11:56;;;;;;;0.73;0.20;;;12.80;99.90;;;;;;5138219;27;20107;-41
2023/08/31 00:14:23;;;;;;;1.30;0.23;;;12.80;99.90;;;;;;5119792;27;20050;-41
2023/08/31 00:16:50;;;;;;;1.85;0.28;;;12.80;99.90;;;;;;5138102;27;20099;-40
2023/08/31 00:19:16;;;;;;;0.80;0.30;;;12.80;99.90;;;;;;5137898;27;20047;-41
2023/08/31 00:21:42;;;;;;;1.23;0.20;;;12.80;99.90;;;;;;5137942;27;20054;-40
2023/08/31 00:24:09;;;;;;;1.20;0.20;;;12.80;99.90;;;;;;5137951;27;20079;-40
2023/08/31 00:26:40;;;;;;;0.95;0.30;;;12.80;99.90;;;;;;5137810;27;20039;-40
2023/08/31 00:29:06;;;;;;;1.27;0.50;;;12.80;99.90;;;;;;5137759;27;20046;-40
2023/08/31 00:31:33;;;;;;;1.40;0.30;;;12.80;99.90;;;;;;5137447;27;20051;-41
2023/08/31 00:34:03;;;;;;;2.95;0.30;;;12.80;99.90;;;;;;5137456;27;20054;-40
2023/08/31 00:36:33;;;;;;;1.38;0.40;;;12.80;99.90;;;;;;5137711;27;20047;-40
2023/08/31 00:39:10;;;;;;;1.77;0.40;;;12.80;99.90;;;;;;5137489;27;20198;-40
2023/08/31 00:41:36;;;;;;;0.85;0.40;;;12.80;99.90;;;;;;5137794;27;20058;-40
2023/08/31 00:44:04;;;;;;;2.95;0.30;;;12.80;99.90;;;;;;5137701;27;20153;-40
2023/08/31 00:46:31;;;;;;;1.70;0.30;;;12.70;99.90;;;;;;5137303;27;20053;-41
2023/08/31 00:48:58;;;;;;;2.20;0.40;;;12.80;99.90;;;;;;5119583;27;20104;-40
2023/08/31 00:51:24;;;;;;;1.92;0.40;;;12.70;99.90;;;;;;5137363;27;20094;-40
2023/08/31 00:53:55;;;;;;;2.33;0.57;;;12.70;99.90;;;;;;5137350;27;20443;-40
2023/08/31 00:56:21;;;;;;;2.80;0.70;;;12.70;99.90;;;;;;5137160;27;20537;-41
2023/08/31 00:58:47;;;;;;;1.98;0.70;;;12.70;99.90;;;;;;5137261;27;20133;-40
2023/08/31 01:01:36;;;;;;;1.45;0.60;;;12.70;99.90;;;;;;5137169;27;20085;-40
2023/08/31 01:04:05;;;;;;;1.65;0.70;;;12.60;99.90;;;;;;5137442;27;20039;-40
2023/08/31 01:07:02;;;;;;;3.35;0.82;;;12.60;99.90;;;;;;5137136;27;20089;-40
2023/08/31 01:09:40;;;;;;;3.58;0.70;;;12.60;99.90;;;;;;5118994;27;20104;-41
2023/08/31 01:12:19;;;;;;;3.53;0.80;;;12.60;99.90;;;;;;5137327;27;20083;-40
2023/08/31 01:14:59;;;;;;;2.55;1.00;;;12.50;99.90;;;;;;5137039;27;20058;-40
2023/08/31 01:17:28;;;;;;;2.90;0.82;;;12.50;99.90;;;;;;5137084;27;20070;-40
2023/08/31 01:19:57;;;;;;;2.72;0.80;;;12.50;99.90;;;;;;5136766;27;20054;-40
2023/08/31 01:22:42;;;;;;;3.15;0.73;;;12.50;99.90;;;;;;5136927;27;20047;-41
2023/08/31 01:25:09;;;;;;;1.77;0.70;;;12.50;99.90;;;;;;5136889;27;20058;-40
2023/08/31 01:27:35;;;;;;;;;;;12.50;99.90;;;;;;5137186;27;20085;-40
2023/08/31 01:30:05;;;;;;;1.35;0.60;;;12.50;99.90;;;;;;5136654;27;20450;-43
2023/08/31 01:32:34;;;;;;;2.22;0.75;;;12.50;99.90;;;;;;5136365;27;20043;-40
2023/08/31 01:35:03;;;;;;;1.30;0.60;;;12.50;99.90;;;;;;5136409;27;20578;-41
2023/08/31 01:37:42;;;;;;;1.45;0.60;;;12.40;99.90;;;;;;5136840;27;20100;-40
2023/08/31 01:40:19;;;;;;;2.78;0.63;;;12.40;99.90;;;;;;5136419;27;20053;-40
2023/08/31 01:42:47;;;;;;;1.85;0.65;;;12.30;99.90;;;;;;5136293;27;20053;-40
2023/08/31 01:45:16;;;;;;;2.03;0.70;;;12.30;99.90;;;;;;5101854;27;20039;-43
2023/08/31 01:47:42;;;;;;;1.38;0.68;;;12.20;99.90;;;;;;5136417;27;20046;-40
2023/08/31 01:50:09;;;;;;;1.33;0.57;;;12.10;99.90;;;;;;5136291;27;20082;-40
2023/08/31 01:52:34;;;;;;;2.42;0.68;;;12.10;99.90;;;;;;5118256;27;20433;-40
2023/08/31 01:55:00;;;;;;;1.47;0.60;;;12.00;99.90;;;;;;5136075;27;20046;-40
2023/08/31 01:57:25;;;;;;;2.10;0.87;;;12.00;99.90;;;;;;5135755;27;20055;-40
2023/08/31 01:59:51;;;;;;;1.53;0.63;;;11.90;99.90;;;;;;5135995;27;20503;-40
2023/08/31 02:02:17;;;;;;;2.57;0.77;;;11.90;99.90;;;;;;5136057;27;20039;-40
2023/08/31 02:04:43;;;;;;;2.38;0.75;;;11.80;99.90;;;;;;5136085;27;20284;-40
2023/08/31 02:07:09;;;;;;;2.60;0.70;;;11.80;99.90;;;;;;5135875;27;20380;-40
2023/08/31 02:09:35;;;;;;;1.55;0.55;;;11.80;99.90;;;;;;5135919;27;20046;-40
2023/08/31 02:12:00;;;;;;;3.53;0.50;;;11.70;99.90;;;;;;5117379;27;20096;-40
2023/08/31 02:14:26;;;;;;;1.53;0.50;;;11.70;99.90;;;;;;5135091;27;20092;-40
2023/08/31 02:16:52;;;;;;;5.40;1.00;;;11.70;99.90;;;;;;5135811;27;20046;-40
2023/08/31 02:19:17;;;;;;;3.20;0.53;;;11.70;99.90;;;;;;5136077;27;20082;-40
2023/08/31 02:21:43;;;;;;;0.90;0.40;;;11.70;99.90;;;;;;5135541;27;20078;-40
2023/08/31 02:24:09;;;;;;;2.63;0.70;;;11.60;99.90;;;;;;5135592;27;20043;-40
2023/08/31 02:26:37;;;;;;;2.17;0.70;;;11.60;99.90;;;;;;5135363;27;20043;-40
2023/08/31 02:29:03;;;;;;;1.77;0.90;;;11.60;99.90;;;;;;5117713;27;20047;-40
2023/08/31 02:31:29;;;;;;;2.00;0.85;;;11.70;99.90;;;;;;5135560;27;20047;-40
2023/08/31 02:33:55;;;;;;;3.13;0.97;;;11.60;99.90;;;;;;5135466;27;20484;-40
2023/08/31 02:36:20;;;;;;;2.33;1.00;;;11.70;99.90;;;;;;5117108;27;20538;-40
2023/08/31 02:38:46;;;;;;;2.70;0.93;;;11.70;99.90;;;;;;5135299;27;20050;-40
2023/08/31 02:41:12;;;;;;;1.95;0.95;;;11.70;99.90;;;;;;5135240;27;20054;-40
2023/08/31 02:43:39;;;;;;;2.40;0.93;;;11.70;99.90;;;;;;5135239;27;20051;-40
2023/08/31 02:46:05;;;;;;;3.30;0.80;;;11.60;99.90;;;;;;5135252;27;20047;-40
2023/08/31 02:48:32;;;;;;;3.53;1.23;;;11.60;99.90;;;;;;5135426;27;20039;-40
2023/08/31 02:51:00;;;;;;;1.30;0.60;;;11.60;99.90;;;;;;5135075;27;20045;-40
2023/08/31 02:53:30;;;;;;;1.90;0.50;;;11.60;99.90;;;;;;5134961;27;20146;-40
2023/08/31 02:55:56;;;;;;;2.35;0.60;;;11.60;99.90;;;;;;5134799;27;20202;-41
2023/08/31 02:58:22;;;;;;;2.78;0.50;;;11.60;99.90;;;;;;5135125;27;20103;-40
2023/08/31 03:00:48;;;;;;;2.42;0.60;;;11.60;99.90;;;;;;5135005;27;20050;-40
2023/08/31 03:03:17;;;;;;;0.85;0.60;;;11.70;99.90;;;;;;5135034;27;20050;-40
2023/08/31 03:05:43;;;;;;;0.90;0.30;;;11.70;99.90;;;;;;5134922;27;20130;-40
2023/08/31 03:08:09;;;;;;;0.82;0.30;;;11.70;99.90;;;;;;5134705;27;20046;-40
2023/08/31 03:10:36;;;;;;;1.77;0.50;;;11.70;99.90;;;;;;5134503;27;20039;-40
2023/08/31 03:13:02;;;;;;;;;;;11.70;99.90;;;;;;5135257;27;20061;-40
2023/08/31 03:15:27;;;;;;;1.00;0.43;;;11.70;99.90;;;;;;5134843;27;20434;-40
2023/08/31 03:17:53;;;;;;;1.67;0.40;;;11.80;99.90;;;;;;5134931;27;20395;-40
2023/08/31 03:20:19;;;;;;;2.83;0.60;;;11.80;99.90;;;;;;5134681;27;20043;-41
2023/08/31 03:22:44;;;;;;;1.17;0.30;;;11.80;99.90;;;;;;5134747;27;20050;-40
2023/08/31 03:25:10;;;;;;;2.13;0.40;;;11.80;99.90;;;;;;5134424;27;20046;-40
2023/08/31 03:27:35;;;;;;;1.50;0.30;;;11.90;99.90;;;;;;5116864;27;20054;-40
2023/08/31 03:30:03;;;;;;;1.60;0.40;;;11.90;99.90;;;;;;5116695;28;20407;-40
2023/08/31 03:32:28;;;;;;;1.40;0.40;;;11.90;99.90;;;;;;5134665;28;20043;-40
2023/08/31 03:34:54;;;;;;;1.33;0.57;;;11.90;99.90;;;;;;5116446;28;20527;-40
2023/08/31 03:37:21;;;;;;;4.77;0.83;;;11.90;99.90;;;;;;5134566;28;20134;-40
2023/08/31 03:39:50;;;;;;;0.98;0.32;;;11.90;99.90;;;;;;5134396;28;20082;-40
2023/08/31 03:42:15;;;;;;;3.83;0.65;;;11.90;99.90;;;;;;5134262;28;20043;-40
2023/08/31 03:44:41;;;;;;;1.63;0.23;;;11.90;99.90;;;;;;5134571;28;20035;-40
2023/08/31 03:47:07;;;;;;;1.50;0.30;;;11.90;99.90;;;;;;5134452;28;20276;-40
2023/08/31 03:49:34;;;;;;;6.60;0.50;;;11.90;99.90;;;;;;5134683;28;20116;-40
2023/08/31 03:52:00;;;;;;;1.40;0.30;;;11.90;99.90;;;;;;5116233;28;20083;-40
2023/08/31 03:54:26;;;;;;;0.60;0.30;;;11.90;99.90;;;;;;5134489;28;20523;-40
2023/08/31 03:56:52;;;;;;;1.17;0.37;;;11.90;99.90;;;;;;5134259;28;20082;-40
2023/08/31 03:59:18;;;;;;;2.57;0.50;;;11.90;99.90;;;;;;5134197;28;20174;-40
2023/08/31 04:01:44;;;;;;;0.95;0.47;;;11.90;99.90;;;;;;5134427;28;20039;-40
2023/08/31 04:04:09;;;;;;;1.75;0.50;;;11.90;99.90;;;;;;5134333;28;20555;-40
2023/08/31 04:06:35;;;;;;;1.17;0.30;;;11.90;99.90;;;;;;5134095;28;20043;-40
2023/08/31 04:09:01;;;;;;;1.70;0.47;;;11.90;99.90;;;;;;5115835;28;20043;-40
2023/08/31 04:11:26;;;;;;;2.57;0.53;;;11.90;99.90;;;;;;5116239;28;20051;-40
2023/08/31 04:13:53;;;;;;;3.43;0.50;;;11.90;99.90;;;;;;5134181;28;20047;-40
2023/08/31 04:16:19;;;;;;;4.18;0.65;;;11.90;99.90;;;;;;5134232;28;20049;-40
2023/08/31 04:18:51;;;;;;;1.52;0.52;;;11.80;99.90;;;;;;5134080;28;20051;-40
2023/08/31 04:21:17;;;;;;;1.92;0.40;;;11.80;99.90;;;;;;5134109;28;20039;-40
2023/08/31 04:23:43;;;;;;;;;;;11.80;99.90;;;;;;5134588;28;20144;-40
2023/08/31 04:26:12;;;;;;;1.25;0.30;;;11.80;99.90;;;;;;5134112;28;19996;-40
2023/08/31 04:28:40;;;;;;;1.38;0.50;;;11.90;99.90;;;;;;5134033;28;20047;-40
2023/08/31 04:31:07;;;;;;;1.58;0.40;;;11.90;99.90;;;;;;5134081;28;20074;-40
2023/08/31 04:33:34;;;;;;;2.05;0.40;;;11.90;99.90;;;;;;5134136;28;20495;-40
2023/08/31 04:36:00;;;;;;;2.58;0.50;;;11.90;99.90;;;;;;5133957;28;20042;-40
2023/08/31 04:38:25;;;;;;;4.13;0.93;;;11.90;99.90;;;;;;5136816;27;20039;-40
2023/08/31 04:40:51;;;;;;;0.90;0.30;;;12.00;99.90;;;;;;5137625;27;20047;-40
2023/08/31 04:43:17;;;;;;;1.07;0.43;;;12.00;99.90;;;;;;5137535;27;20047;-40
2023/08/31 04:45:42;;;;;;;1.17;0.50;;;12.00;99.90;;;;;;5137816;27;20100;-40
2023/08/31 04:48:08;;;;;;;1.37;0.53;;;12.00;99.90;;;;;;5137468;27;20051;-40
2023/08/31 04:50:34;;;;;;;4.50;0.60;;;12.00;99.90;;;;;;5137211;27;20043;-40
2023/08/31 04:52:59;;;;;;;2.33;0.70;;;12.00;99.90;;;;;;5137768;27;20502;-40
2023/08/31 04:55:25;;;;;;;3.77;0.67;;;12.10;99.90;;;;;;5137454;27;20415;-40
2023/08/31 04:57:51;;;;;;;0.63;0.30;;;12.00;99.90;;;;;;5137087;27;20434;-40
2023/08/31 05:00:17;;;;;;;1.38;0.40;;;12.00;99.90;;;;;;5137097;27;20086;-40
2023/08/31 05:02:43;;;;;;;2.08;0.70;;;12.10;99.90;;;;;;5137277;27;20395;-40
2023/08/31 05:05:09;;;;;;;2.58;0.60;;;12.10;99.90;;;;;;5153548;27;20043;-40
2023/08/31 05:07:34;;;;;;;2.17;0.50;;;12.10;99.90;;;;;;5137232;27;20513;-40
2023/08/31 05:10:00;;;;;;;1.10;0.43;;;12.10;99.90;;;;;;5119012;27;20050;-40
2023/08/31 05:12:26;;;;;;;1.93;0.60;;;12.00;99.90;;;;;;5137212;27;20066;-40
2023/08/31 05:14:51;;;;;;;1.40;0.50;;;12.00;99.90;;;;;;5137057;27;20039;-40
2023/08/31 05:17:17;;;;;;;2.03;0.80;;;12.00;99.90;;;;;;5137097;27;20076;-40
2023/08/31 05:19:43;;;;;;;1.70;0.60;;;12.00;99.90;;;;;;5136680;27;20088;-40
2023/08/31 05:22:09;;;;;;;0.90;0.40;;;12.00;99.90;;;;;;5136675;27;20357;-40
2023/08/31 05:24:34;;;;;;;2.15;0.63;;;12.00;99.90;;;;;;5137180;27;20058;-41
2023/08/31 05:27:00;;;;;;;1.30;0.60;;;12.00;99.90;;;;;;5136914;27;20491;-40
2023/08/31 05:29:26;;;;;;;1.43;0.50;;;12.00;99.90;;;;;;5136631;27;20122;-40
2023/08/31 05:31:52;;;;;;;2.37;0.57;;;12.00;99.90;;;;;;5136525;27;20492;-40
2023/08/31 05:34:21;;;;;;;2.08;0.63;;;12.00;99.90;;;;;;5136546;27;20119;-40
2023/08/31 05:36:47;;;;;;;1.73;0.80;;;12.00;99.90;;;;;;5118325;27;20130;-40
2023/08/31 05:39:12;;;;;;;3.77;0.67;;;12.10;99.90;;;;;;5136515;27;20126;-40
2023/08/31 05:41:40;;;;;;;2.20;0.53;;;12.00;99.90;;;;;;5136429;27;20051;-40
2023/08/31 05:44:06;;;;;;;1.67;0.60;;;12.10;99.90;;;;;;5136443;27;20043;-40
2023/08/31 05:46:32;;;;;;;2.40;0.60;;;12.10;99.90;;;;;;5136340;27;20487;-40
2023/08/31 05:48:58;;;;;;;2.60;0.70;;;12.10;99.90;;;;;;5135082;27;20051;-40
2023/08/31 05:51:24;;;;;;;1.33;0.50;;;12.10;99.90;;;;;;5136292;27;20039;-40
2023/08/31 05:53:49;;;;;;;1.45;0.57;;;12.20;99.90;;;;;;5136455;27;20086;-40
2023/08/31 05:56:15;;;;;;;3.20;0.60;;;12.20;99.90;;;;;;5136077;27;20442;-40
2023/08/31 05:58:41;;;;;;;1.67;0.40;;;12.20;99.90;;;;;;5136093;27;20058;-40
2023/08/31 06:01:07;;;;;;;2.03;0.50;;;12.30;99.90;;;;;;5135990;27;20503;-40
2023/08/31 06:03:33;;;;;;;3.05;0.65;;;12.30;99.90;;;;;;5135975;27;20159;-40
2023/08/31 06:05:59;;;;;;;2.65;0.68;;;12.40;99.90;;;;;;5135783;27;20054;-40
2023/08/31 06:08:25;;;;;;;2.70;0.50;;;12.40;99.90;;;;;;5135975;27;20050;-40
2023/08/31 06:10:51;;;;;;;2.35;0.52;;;12.50;99.90;;;;;;5135962;27;20039;-40
2023/08/31 06:13:17;;;;;;;0.95;0.47;;;12.60;99.90;;;;;;5135831;27;20096;-40
2023/08/31 06:15:44;;;;;;;1.33;0.40;;;12.60;99.90;;;;;;5135782;27;20043;-40
2023/08/31 06:18:10;;;;;;;2.60;0.40;;;12.70;99.90;;;;;;5135734;27;20126;-40
2023/08/31 06:20:36;;;;;;;2.10;0.47;;;12.80;99.90;;;;;;5135663;27;20130;-40
2023/08/31 06:23:02;;;;;;;1.50;0.40;;;12.90;99.90;;;;;;5135644;27;20440;-40
2023/08/31 06:25:28;;;;;;;1.38;0.50;;;12.90;99.90;;;;;;5135609;27;20043;-40
2023/08/31 06:27:54;;;;;;;1.92;0.40;;;13.10;99.90;;;;;;5135425;27;20053;-40
2023/08/31 06:30:19;;;;;;;2.23;0.40;;;13.20;99.90;;;;;;5135597;27;20051;-40
2023/08/31 06:32:46;;;;;;;3.10;0.40;;;13.30;99.90;;;;;;5135276;27;20046;-40
2023/08/31 06:35:15;;;;;;;1.20;0.28;;;13.40;99.90;;;;;;5135111;27;20483;-40
2023/08/31 06:37:41;;;;;;;1.73;0.40;;;13.50;99.90;;;;;;5135420;27;20122;-42
2023/08/31 06:40:10;;;;;;;1.73;0.55;;;13.50;99.90;;;;;;5135574;27;20436;-40
2023/08/31 06:42:37;;;;;;;1.50;0.50;;;13.60;99.90;;;;;;5135314;27;20058;-40
2023/08/31 06:45:08;;;;;;;2.13;0.45;;;13.70;99.90;;;;;;5135023;27;20408;-40
2023/08/31 06:47:34;;;;;;;2.25;0.40;;;13.70;99.90;;;;;;5135082;27;20392;-40
2023/08/31 06:50:00;;;;;;;2.55;0.40;;;13.70;99.90;;;;;;5117066;27;20047;-41
2023/08/31 06:52:26;;;;;;;0.52;0.20;;;13.70;99.90;;;;;;5135054;27;20057;-40
2023/08/31 06:54:55;;;;;;;;;;;13.80;99.90;;;;;;5135413;27;20078;-40
2023/08/31 06:57:22;;;;;;;0.40;0.20;;;13.80;99.90;;;;;;5134791;27;20112;-40
2023/08/31 06:59:48;;;;;;;4.65;0.40;;;14.00;99.90;;;;;;5134380;27;20050;-41
2023/08/31 07:02:14;;;;;;;2.58;0.40;;;14.10;99.90;;;;;;5134784;27;20047;-40
2023/08/31 07:04:40;;;;;;;2.35;0.45;;;14.10;99.90;;;;;;5135053;27;20130;-40
2023/08/31 07:07:06;;;;;;;2.60;0.40;;;14.20;99.90;;;;;;5134986;27;20090;-40
2023/08/31 07:09:31;;;;;;;1.38;0.40;;;14.30;99.90;;;;;;5135079;27;20042;-40
2023/08/31 07:11:58;;;;;;;0.63;0.27;;;14.30;99.90;;;;;;5134702;27;20051;-40
2023/08/31 07:14:24;;;;;;;0.65;0.30;;;14.30;99.90;;;;;;5134528;27;20049;-41
2023/08/31 07:16:50;;;;;;;2.67;0.40;;;14.30;99.90;;;;;;5134568;27;20406;-40
2023/08/31 07:19:16;;;;;;;1.08;0.30;;;14.40;99.90;;;;;;5134633;27;20086;-40
2023/08/31 07:21:41;;;;;;;1.13;0.40;;;14.40;99.90;;;;;;5134720;27;20083;-40
2023/08/31 07:24:08;;;;;;;1.00;0.27;;;14.40;99.90;;;;;;5134593;27;20049;-40
2023/08/31 07:26:34;;;;;;;2.58;0.45;;;14.40;99.90;;;;;;5134689;27;20460;-40
2023/08/31 07:29:04;;;;;;;0.77;0.25;;;14.40;99.90;;;;;;5134518;27;20058;-40
2023/08/31 07:31:30;;;;;;;0.60;0.13;;;14.50;99.90;;;;;;5134596;27;20090;-40
2023/08/31 07:33:56;;;;;;;1.13;0.40;;;14.50;99.90;;;;;;5134617;28;20051;-40
2023/08/31 07:36:22;;;;;;;1.52;0.30;;;14.50;99.90;;;;;;5134610;28;20088;-40
2023/08/31 07:38:47;;;;;;;1.07;0.23;;;14.60;99.90;;;;;;5134538;28;20103;-40
2023/08/31 07:41:13;;;;;;;0.87;0.30;;;14.60;99.90;;;;;;5134294;28;20130;-41
2023/08/31 07:43:38;;;;;;;2.50;0.33;;;14.70;99.90;;;;;;5134329;28;20085;-41
2023/08/31 07:46:04;;;;;;;1.83;0.20;;;14.70;99.90;;;;;;5134227;28;20047;-40
2023/08/31 07:48:30;;;;;;;1.37;0.30;;;14.70;99.90;;;;;;5134474;28;20104;-40
2023/08/31 07:50:55;;;;;;;1.53;0.30;;;14.80;99.90;;;;;;5116084;28;20092;-41
2023/08/31 07:53:22;;;;;;;2.77;0.27;;;14.80;99.90;;;;;;5134468;28;20126;-41
2023/08/31 07:55:54;;;;;;;2.15;0.30;;;14.90;99.90;;;;;;5134417;28;20495;-40
2023/08/31 07:58:21;;;;;;;0.93;0.28;;;14.90;99.90;;;;;;5134038;28;20515;-40
2023/08/31 08:00:47;;;;;;;1.58;0.20;;;14.90;99.90;;;;;;5134431;28;20035;-41
2023/08/31 08:03:12;;;;;;;2.03;0.20;;;15.00;99.90;;;;;;5134526;28;20531;-41
2023/08/31 08:05:40;;;;;;;0.83;0.27;;;15.00;99.90;;;;;;5134182;28;20047;-40
2023/08/31 08:08:05;;;;;;;1.38;0.20;;;15.10;99.90;;;;;;5134185;28;20499;-40
2023/08/31 08:10:31;;;;;;;3.57;0.20;;;15.20;99.90;;;;;;5134136;28;20152;-40
2023/08/31 08:12:57;;;;;;;0.60;0.20;;;15.20;99.90;;;;;;5136272;27;20096;-40
2023/08/31 08:15:22;;;;;;;0.53;0.23;;;15.30;99.90;;;;;;5138236;27;20596;-41
2023/08/31 08:17:48;;;;;;;0.35;0.15;;;15.30;99.90;;;;;;5138148;27;20047;-41
2023/08/31 08:20:14;;;;;;;0.60;0.20;;;15.40;99.90;;;;;;5138130;27;20047;-41
2023/08/31 08:22:40;;;;;;;1.73;0.30;;;15.40;99.90;;;;;;5138270;27;20436;-41
2023/08/31 08:25:06;;;;;;;1.90;0.22;;;15.50;99.90;;;;;;5138088;27;20047;-40
2023/08/31 08:27:32;;;;;;;0.30;0.20;;;15.50;99.90;;;;;;5137718;27;20050;-41
2023/08/31 08:29:59;;;;;;;1.13;0.20;;;15.60;99.90;;;;;;5137904;27;20118;-41
2023/08/31 08:32:25;;;;;;;0.65;0.20;;;15.60;99.90;;;;;;5137890;27;20056;-41
2023/08/31 08:34:51;;;;;;;0.25;0.10;;;15.70;99.90;;;;;;5137681;27;20039;-40
2023/08/31 08:37:17;;;;;;;2.00;0.20;;;15.70;99.90;;;;;;5137723;27;20205;-40
2023/08/31 08:39:43;;;;;;;0.50;0.20;;;15.70;99.90;;;;;;5137594;27;20043;-40
2023/08/31 08:42:11;;;;;;;0.60;0.30;;;15.80;99.90;;;;;;5137564;27;20116;-41
2023/08/31 08:44:37;;;;;;;0.40;0.20;;;15.80;99.90;;;;;;5137638;27;20082;-41
2023/08/31 08:47:03;;;;;;;0.60;0.20;;;15.80;99.90;;;;;;5137589;27;20047;-41
2023/08/31 08:49:33;;;;;;;;;;;15.80;99.90;;;;;;5137825;27;20096;-40
2023/08/31 08:51:59;;;;;;;1.40;0.30;;;15.90;99.90;;;;;;5137565;27;19919;-40
2023/08/31 08:54:25;;;;;;;0.68;0.20;;;15.90;99.90;;;;;;5137329;27;20076;-41
2023/08/31 08:56:51;;;;;;;1.05;0.20;;;15.90;99.90;;;;;;5137145;27;20433;-40
2023/08/31 08:59:17;;;;;;;1.20;0.25;;;15.90;99.90;;;;;;5137753;27;20087;-41
2023/08/31 09:01:43;;;;;;;1.23;0.40;;;16.00;99.90;;;;;;5137729;27;20495;-41
2023/08/31 09:04:12;;;;;;;1.77;0.20;;;16.00;99.90;;;;;;5137106;27;20039;-40
2023/08/31 09:06:39;;;;;;;1.38;0.20;;;16.10;99.90;;;;;;5153551;27;20495;-40
2023/08/31 09:09:05;;;;;;;1.48;0.30;;;16.20;99.90;;;;;;5137159;27;20434;-41
2023/08/31 09:11:30;;;;;;;0.50;0.35;;;16.20;99.90;;;;;;5118780;27;20043;-41
2023/08/31 09:13:57;;;;;;;1.15;0.15;;;16.20;99.90;;;;;;5137200;27;20050;-41
2023/08/31 09:16:28;;;;;;;;;;;16.20;99.90;;;;;;5137477;27;20050;-42
2023/08/31 09:18:58;;;;;;;0.30;0.20;;;16.20;99.90;;;;;;5136762;27;20056;-41
2023/08/31 09:21:35;;;;;;;1.08;0.20;;;16.20;99.90;;;;;;5137021;27;20066;-40
2023/08/31 09:24:02;;;;;;;1.33;0.20;;;16.20;99.90;;;;;;5136472;27;20047;-41
2023/08/31 09:26:28;;;;;;;3.92;0.30;;;16.10;99.90;;;;;;5136930;27;20062;-41
2023/08/31 09:28:53;;;;;;;1.10;0.20;;;16.00;99.90;;;;;;5136808;27;20046;-40
2023/08/31 09:31:19;;;;;;;0.65;0.20;;;16.00;99.90;;;;;;5136820;27;20129;-41
2023/08/31 09:33:51;;;;;;;1.48;0.47;;;15.90;99.90;;;;;;5136676;27;20057;-40
2023/08/31 09:36:19;;;;;;;2.47;0.38;;;15.90;99.90;;;;;;5136414;27;20047;-41
2023/08/31 09:38:45;;;;;;;0.55;0.20;;;15.90;99.90;;;;;;5136598;27;20111;-40
2023/08/31 09:41:11;;;;;;;1.75;0.17;;;15.90;99.90;;;;;;5136979;27;20039;-40
2023/08/31 09:43:37;;;;;;;2.28;0.50;;;16.00;99.90;;;;;;5136421;27;20046;-41
2023/08/31 09:46:04;;;;;;;0.93;0.30;;;16.10;99.90;;;;;;5136766;27;20392;-41
2023/08/31 09:48:30;;;;;;;1.05;0.30;;;16.30;99.90;;;;;;5136261;27;20510;-41
2023/08/31 09:50:56;;;;;;;;;;;16.40;99.90;;;;;;5136711;27;20491;-41
2023/08/31 09:53:24;;;;;;;2.22;0.30;;;16.50;99.90;;;;;;5136004;27;19941;-41
2023/08/31 09:55:52;;;;;;;2.10;0.38;;;16.50;99.90;;;;;;5101115;27;20090;-41
2023/08/31 09:58:20;;;;;;;0.88;0.15;;;16.40;99.90;;;;;;5136260;27;20108;-41
2023/08/31 10:00:46;;;;;;;0.80;0.20;;;16.30;99.90;;;;;;5135777;27;20548;-41
2023/08/31 10:03:15;;;;;;;1.70;0.30;;;16.20;99.90;;;;;;5135934;27;20484;-40
2023/08/31 10:05:45;;;;;;;0.57;0.25;;;16.10;99.90;;;;;;5135748;27;20047;-41
2023/08/31 10:08:11;;;;;;;2.92;0.30;;;16.10;99.90;;;;;;5135994;27;20047;-41
2023/08/31 10:10:37;;;;;;;;;;;16.20;99.90;;;;;;5136243;27;20031;-41
2023/08/31 10:13:05;;;;;;;0.93;0.20;;;16.30;99.90;;;;;;5135776;27;19926;-41
2023/08/31 10:15:37;;;;;;;0.80;0.20;;;16.40;99.90;;;;;;5135815;27;20047;-40
2023/08/31 10:18:04;;;;;;;0.77;0.20;;;16.50;99.90;;;;;;5135625;27;20047;-41
2023/08/31 10:20:31;;;;;;;1.90;0.43;;;16.70;99.90;;;;;;5135452;27;20049;-40
2023/08/31 10:23:07;;;;;;;1.55;0.30;;;16.80;99.90;;;;;;5117582;27;20046;-40
2023/08/31 10:26:00;;;;;;;2.45;0.30;;;16.90;99.90;;;;;;5136096;27;20046;-41
2023/08/31 10:28:28;;;;;;;0.20;0.20;;;17.10;99.90;;;;;;5132840;27;20048;-42
2023/08/31 10:31:17;;;;;;;1.10;0.38;;;17.20;99.90;;;;;;5135391;27;20043;-41
2023/08/31 10:33:54;;;;;;;0.63;0.25;;;17.30;99.90;;;;;;5135438;27;20064;-40
2023/08/31 10:36:20;;;;;;;1.52;0.30;;;17.40;99.90;;;;;;5134764;27;20043;-41
2023/08/31 10:39:06;;;;;;;;;;;17.60;99.90;;;;;;5135787;27;20122;-41
2023/08/31 10:41:35;;;;;;;1.75;0.40;;;17.70;99.90;;;;;;5106533;27;19919;-41
2023/08/31 10:44:02;;;;;;;1.58;0.20;;;17.80;99.90;;;;;;5135196;27;20372;-40
2023/08/31 10:46:30;;;;;;;1.33;0.30;;;18.00;99.90;;;;;;5135092;27;20491;-41
2023/08/31 10:49:14;;;;;;;0.77;0.20;;;17.90;99.90;;;;;;5135227;27;20042;-41
2023/08/31 10:51:42;;;;;;;0.60;0.30;;;18.00;99.90;;;;;;5135010;27;20511;-41
2023/08/31 10:54:14;;;;;;;1.58;0.50;;;18.10;99.90;;;;;;5117037;27;20174;-41
2023/08/31 10:57:16;;;;;;;2.70;0.40;;;18.20;99.90;;;;;;5135406;27;20082;-40
2023/08/31 10:59:55;;;;;;;1.58;0.20;;;18.20;99.90;;;;;;5134717;27;20050;-41
2023/08/31 11:02:28;;;;;;;0.70;0.20;;;18.00;99.90;;;;;;5135376;27;20047;-40
2023/08/31 11:04:59;;;;;;;0.82;0.22;;;17.90;99.90;;;;;;5134913;27;20043;-40
2023/08/31 11:07:27;;;;;;;2.15;0.20;;;18.00;99.90;;;;;;5135005;27;20071;-41
2023/08/31 11:10:10;;;;;;;1.55;0.20;;;18.10;99.90;;;;;;5134788;27;20453;-41
2023/08/31 11:12:36;;;;;;;1.05;0.30;;;18.30;99.90;;;;;;5134916;27;20046;-41
2023/08/31 11:15:03;;;;;;;;;;;18.40;99.90;;;;;;5135173;27;20079;-40
2023/08/31 11:17:32;;;;;;;0.60;0.22;;;18.60;99.90;;;;;;5134781;27;19919;-40
2023/08/31 11:19:57;;;;;;;2.08;0.30;;;18.80;99.90;;;;;;5134547;27;20043;-41
2023/08/31 11:22:23;;;;;;;2.03;0.20;;;18.90;99.90;;;;;;5134615;27;20096;-41
2023/08/31 11:24:49;;;;;;;0.35;0.20;;;19.00;99.90;;;;;;5134611;27;20087;-41
2023/08/31 11:27:20;;;;;;;0.52;0.20;;;19.10;99.90;;;;;;5134682;28;20393;-41
2023/08/31 11:29:46;;;;;;;1.15;0.15;;;19.30;99.90;;;;;;5134661;27;20074;-41
2023/08/31 11:32:12;;;;;;;1.48;0.30;;;19.50;99.90;;;;;;5134697;27;20078;-41
2023/08/31 11:34:42;;;;;;;2.17;0.50;;;19.50;99.90;;;;;;5134421;28;20402;-41
2023/08/31 11:37:09;;;;;;;3.33;0.57;;;19.50;99.90;;;;;;5134656;28;20078;-41
2023/08/31 11:39:36;;;;;;;1.20;0.40;;;19.40;99.90;;;;;;5134192;28;20392;-40
2023/08/31 11:42:02;;;;;;;2.42;0.40;;;19.10;99.90;;;;;;5134371;28;20497;-41
2023/08/31 11:44:28;;;;;;;2.83;0.32;;;18.80;99.90;;;;;;5134403;28;20135;-40
2023/08/31 11:46:54;;;;;;;1.85;0.25;;;18.40;99.90;;;;;;5116735;27;20085;-40
2023/08/31 11:49:20;;;;;;;1.05;0.20;;;17.90;99.90;;;;;;5138815;27;20043;-40
2023/08/31 11:51:49;;;;;;;;;;;17.50;99.90;;;;;;5139304;27;20051;-41
2023/08/31 11:54:17;;;;;;;1.00;0.20;;;17.00;99.90;;;;;;5138349;27;19919;-41
2023/08/31 11:56:48;;;;;;;1.10;0.20;;;16.60;99.90;;;;;;5138568;27;20039;-41
2023/08/31 11:59:18;;;;;;;1.25;0.30;;;16.30;99.90;;;;;;5138436;27;20055;-41
2023/08/31 12:01:47;;;;;;;1.10;0.30;;;16.10;99.90;;;;;;5138446;27;20472;-41
2023/08/31 12:04:15;;;;;;;1.08;0.30;;;16.00;99.90;;;;;;5120456;27;20043;-40
2023/08/31 12:06:41;;;;;;;1.05;0.30;;;15.80;99.90;;;;;;5119898;27;20130;-40
2023/08/31 12:09:10;;;;;;;0.80;0.20;;;15.70;99.90;;;;;;5138302;27;20099;-40
2023/08/31 12:11:36;;;;;;;1.17;0.30;;;15.70;99.90;;;;;;5138296;27;20047;-40
2023/08/31 12:14:06;;;;;;;0.57;0.20;;;15.70;99.90;;;;;;5138215;27;20050;-40
2023/08/31 12:16:35;;;;;;;0.43;0.20;;;15.80;99.90;;;;;;5138064;27;20517;-41
2023/08/31 12:19:03;;;;;;;1.05;0.28;;;15.90;99.90;;;;;;5138065;27;20126;-41
2023/08/31 12:21:29;;;;;;;1.38;0.40;;;15.90;99.90;;;;;;5138099;27;20089;-40
2023/08/31 12:23:54;;;;;;;0.63;0.30;;;15.90;99.90;;;;;;5138121;27;20169;-40
2023/08/31 12:26:20;;;;;;;3.10;0.40;;;16.00;99.90;;;;;;5119899;27;20124;-40
2023/08/31 12:28:45;;;;;;;1.23;0.50;;;16.00;99.90;;;;;;5137692;27;20054;-40
2023/08/31 12:31:11;;;;;;;2.30;0.57;;;16.00;99.90;;;;;;5137783;27;20134;-40
2023/08/31 12:33:37;;;;;;;2.13;0.50;;;15.90;99.90;;;;;;5137866;27;20047;-40
2023/08/31 12:36:03;;;;;;;2.45;0.75;;;15.90;99.90;;;;;;5119542;27;20376;-40
2023/08/31 12:38:28;;;;;;;2.97;0.40;;;16.00;99.90;;;;;;5137768;27;20133;-40
2023/08/31 12:40:54;;;;;;;2.23;0.43;;;16.00;99.90;;;;;;5137844;27;20039;-40
2023/08/31 12:43:20;;;;;;;2.45;0.60;;;16.20;99.90;;;;;;5102478;27;20039;-40
2023/08/31 12:45:45;;;;;;;0.70;0.40;;;16.40;99.90;;;;;;5137650;27;20091;-40
2023/08/31 12:48:11;;;;;;;0.40;0.22;;;16.80;99.90;;;;;;5137285;27;20043;-40
2023/08/31 12:50:37;;;;;;;1.33;0.28;;;17.00;99.90;;;;;;5137193;27;20039;-41
2023/08/31 12:53:03;;;;;;;2.08;0.40;;;17.20;99.90;;;;;;5137440;27;20123;-41